Plymouth, Utah
Current Conditions -  °F | °C
As of 5:51 PM on Saturday 22 Nov 2014 (Local Time) from KLGU Reporting Station
Broken Clouds Broken Clouds  
Wind Chill: 27°   Ceiling: 12000
Heat Index: 34°   Visibility: 10mi
Dew Point: 32°   Wind: 8mph
Humidity: 92%   Direction: 220°SW
Pressure: 29.78"   Gusts: NA
Location:  41.88°N, 112.14°W
Report Text: KLGU 230051Z AUTO 22007KT 10SM BKN120 01/00 A2978 RMK AO2 SLP089 T00110000
Loading
Personal Weather Stations






























Interactive Weather Map New forecast layout! Learn more

10-Day Weather Forecast

Advertisements
Track Severe Weather on mobile